createdAt,value
2023-02-14T00:05:48.749Z,0
2023-02-14T00:12:11.844Z,0
2023-02-14T00:18:31.894Z,0
2023-02-14T00:24:54.804Z,0
2023-02-14T00:31:14.909Z,0
2023-02-14T00:37:37.888Z,0
2023-02-14T00:43:57.749Z,0
2023-02-14T00:50:20.882Z,0
2023-02-14T00:56:40.767Z,0
2023-02-14T01:03:03.792Z,0
2023-02-14T01:09:23.886Z,0
2023-02-14T01:15:46.916Z,0
2023-02-14T01:22:06.750Z,0
2023-02-14T01:28:29.805Z,0
2023-02-14T01:34:49.860Z,0
2023-02-14T01:41:12.911Z,0
2023-02-14T01:47:32.879Z,0
2023-02-14T01:53:55.804Z,0
2023-02-14T02:00:15.759Z,0
2023-02-14T02:06:38.844Z,0
2023-02-14T02:12:58.772Z,0
2023-02-14T02:19:21.893Z,0
2023-02-14T02:25:41.824Z,0
2023-02-14T02:32:05.034Z,0
2023-02-14T02:38:24.876Z,0
2023-02-14T02:44:47.834Z,0
2023-02-14T02:51:07.800Z,0
2023-02-14T02:57:30.918Z,0
2023-02-14T03:03:50.752Z,0
2023-02-14T03:10:13.885Z,0
2023-02-14T03:16:33.828Z,0
2023-02-14T03:22:56.880Z,0
2023-02-14T03:29:16.876Z,0
2023-02-14T03:35:40.031Z,0
2023-02-14T03:41:59.836Z,0
2023-02-14T03:48:22.812Z,0
2023-02-14T03:54:43.037Z,0
2023-02-14T04:01:05.932Z,0
2023-02-14T04:07:25.805Z,0
2023-02-14T04:30:49.810Z,0
2023-02-14T04:37:12.784Z,0
2023-02-14T04:43:32.770Z,0
2023-02-14T04:49:55.821Z,0
2023-02-14T04:56:15.884Z,0
2023-02-14T05:02:38.916Z,0
2023-02-14T05:08:58.936Z,0
2023-02-14T05:15:21.869Z,0
2023-02-14T05:21:42.735Z,0
2023-02-14T05:28:05.793Z,0
2023-02-14T05:34:25.823Z,0
2023-02-14T05:40:48.811Z,0
2023-02-14T05:47:08.903Z,0
2023-02-14T05:53:31.769Z,0
2023-02-14T05:59:51.810Z,0
2023-02-14T06:06:14.797Z,0
2023-02-14T06:12:34.920Z,0
2023-02-14T06:18:57.792Z,0
2023-02-14T06:25:17.886Z,0
2023-02-14T06:31:41.043Z,0
2023-02-14T06:38:00.816Z,0
2023-02-14T06:44:23.989Z,0
2023-02-14T06:50:43.834Z,0
2023-02-14T06:57:06.770Z,0
2023-02-14T07:03:26.953Z,0
2023-02-14T07:09:49.873Z,5.62
2023-02-14T07:16:09.803Z,5.62
2023-02-14T07:22:32.816Z,5.62
2023-02-14T07:28:52.942Z,11.25
2023-02-14T07:35:15.804Z,11.25
2023-02-14T07:41:35.809Z,11.25
2023-02-14T07:47:59.028Z,11.25
2023-02-14T07:54:20.287Z,16.88
2023-02-14T08:00:41.884Z,16.88
2023-02-14T08:07:01.804Z,16.88
2023-02-14T08:13:24.768Z,22.5
2023-02-14T08:19:44.924Z,22.5
2023-02-14T08:26:07.845Z,22.5
2023-02-14T08:32:27.945Z,22.5
2023-02-14T08:38:50.887Z,28.12
2023-02-14T08:45:10.749Z,28.12
2023-02-14T08:51:33.826Z,33.75
2023-02-14T08:57:53.890Z,33.75
2023-02-14T09:04:16.852Z,33.75
2023-02-14T09:10:36.861Z,33.75
2023-02-14T09:34:18.692Z,45
2023-02-14T09:40:41.752Z,45
2023-02-14T09:47:01.908Z,50.62
2023-02-14T09:53:24.824Z,50.62
2023-02-14T09:59:44.831Z,56.25
2023-02-14T10:06:07.811Z,56.25
2023-02-14T10:12:27.953Z,61.88
2023-02-14T10:18:51.012Z,61.88
2023-02-14T10:25:10.742Z,61.88
2023-02-14T10:31:33.893Z,67.5
2023-02-14T10:37:53.776Z,67.5
2023-02-14T10:44:16.769Z,73.12
2023-02-14T10:50:36.832Z,73.12
2023-02-14T10:56:59.770Z,73.12
2023-02-14T11:03:20.059Z,73.12
2023-02-14T11:09:42.792Z,78.75
2023-02-14T11:16:03.162Z,78.75
2023-02-14T11:22:25.818Z,84.38
2023-02-14T11:28:45.811Z,84.38
2023-02-14T11:35:08.784Z,84.38
2023-02-14T11:41:28.741Z,90
2023-02-14T11:47:51.899Z,90
2023-02-14T11:54:11.760Z,90
2023-02-14T12:00:34.771Z,95.62
2023-02-14T12:06:54.845Z,95.62
2023-02-14T12:13:17.775Z,101.25
2023-02-14T12:19:37.806Z,101.25
2023-02-14T12:26:00.815Z,101.25
2023-02-14T12:32:20.743Z,101.25
2023-02-14T12:38:43.800Z,106.88
2023-02-14T12:45:03.764Z,106.88
2023-02-14T12:51:26.794Z,106.88
2023-02-14T12:57:46.763Z,112.5
2023-02-14T13:04:09.780Z,112.5
2023-02-14T13:10:30.194Z,112.5
2023-02-14T13:16:52.762Z,106.88
2023-02-14T13:23:12.826Z,106.88
2023-02-14T13:29:35.766Z,106.88
2023-02-14T13:35:55.756Z,101.25
2023-02-14T13:42:18.786Z,101.25
2023-02-14T13:48:39.152Z,101.25
2023-02-14T13:55:01.790Z,90
2023-02-14T14:01:21.778Z,84.38
2023-02-14T14:07:44.787Z,84.38
2023-02-14T14:14:04.785Z,84.38
2023-02-14T14:20:27.862Z,84.38
2023-02-14T14:26:47.805Z,78.75
2023-02-14T14:33:10.744Z,78.75
2023-02-14T14:39:30.861Z,73.12
2023-02-14T15:02:37.785Z,61.88
2023-02-14T15:09:00.993Z,56.25
2023-02-14T15:15:21.092Z,45
2023-02-14T15:21:44.757Z,39.38
2023-02-14T15:28:03.859Z,33.75
2023-02-14T15:34:26.788Z,28.12
2023-02-14T15:40:46.947Z,22.5
2023-02-14T15:47:09.815Z,16.88
2023-02-14T15:53:29.769Z,16.88
2023-02-14T15:59:52.828Z,11.25
2023-02-14T16:06:12.776Z,11.25
2023-02-14T16:12:35.837Z,11.25
2023-02-14T16:18:55.815Z,5.62
2023-02-14T16:25:18.756Z,5.62
2023-02-14T16:31:38.915Z,5.62
2023-02-14T16:38:01.805Z,0
2023-02-14T16:44:22.000Z,0
2023-02-14T16:50:45.374Z,0
2023-02-14T16:57:06.045Z,0
2023-02-14T17:03:28.761Z,0
2023-02-14T17:09:48.772Z,0
2023-02-14T17:16:12.000Z,0
2023-02-14T17:22:31.774Z,0
2023-02-14T17:28:54.852Z,0
2023-02-14T17:35:14.818Z,0
2023-02-14T17:41:37.845Z,0
2023-02-14T17:47:57.821Z,0
2023-02-14T17:54:20.801Z,0
2023-02-14T18:00:40.900Z,0
2023-02-14T18:07:03.833Z,0
2023-02-14T18:13:23.939Z,0
2023-02-14T18:19:46.796Z,0
2023-02-14T18:26:06.762Z,0
2023-02-14T18:32:29.832Z,0
2023-02-14T18:38:49.820Z,0
2023-02-14T18:45:12.771Z,0
2023-02-14T18:51:32.866Z,0
2023-02-14T18:57:55.864Z,0
2023-02-14T19:04:15.847Z,0
2023-02-14T19:10:38.926Z,0
2023-02-14T19:16:58.848Z,0
2023-02-14T19:23:21.876Z,0
2023-02-14T19:29:41.786Z,0
2023-02-14T19:36:04.790Z,0
2023-02-14T19:42:24.830Z,0
2023-02-14T19:58:52.721Z,0
2023-02-14T20:05:12.775Z,0
2023-02-14T20:11:35.759Z,0
2023-02-14T20:17:55.895Z,0
2023-02-14T20:24:18.821Z,0
2023-02-14T20:30:38.882Z,0
2023-02-14T20:37:01.898Z,0
2023-02-14T20:43:21.831Z,0
2023-02-14T20:49:45.047Z,0
2023-02-14T20:56:04.823Z,0
2023-02-14T21:02:27.824Z,0
2023-02-14T21:08:47.773Z,0
2023-02-14T21:15:10.768Z,0
2023-02-14T21:21:30.903Z,0
2023-02-14T21:27:53.793Z,0
2023-02-14T21:34:13.871Z,0
2023-02-14T21:40:36.891Z,0
2023-02-14T21:46:56.896Z,0
2023-02-14T21:53:19.990Z,0
2023-02-14T21:59:39.805Z,0
2023-02-14T22:06:02.908Z,0
2023-02-14T22:12:22.797Z,0
2023-02-14T22:18:45.760Z,0
2023-02-14T22:25:05.902Z,0
2023-02-14T22:31:28.889Z,0
2023-02-14T22:37:48.758Z,0
2023-02-14T22:44:11.820Z,0
2023-02-14T22:50:31.877Z,0
2023-02-14T22:56:54.879Z,0
2023-02-14T23:21:08.748Z,0
2023-02-14T23:27:28.763Z,0
2023-02-14T23:33:51.781Z,0
2023-02-14T23:40:11.842Z,0
2023-02-14T23:46:34.933Z,0
2023-02-14T23:52:54.922Z,0
2023-02-14T23:59:17.819Z,0
